sensor_id;sensor_type;location;lat;lon;timestamp;P1;durP1;ratioP1;P2;durP2;ratioP2
18338;SDS011;9295;44.484;11.240;2023-07-02T00:00:27;11.77;;;8.20;;
18338;SDS011;9295;44.484;11.240;2023-07-02T00:02:56;11.83;;;8.10;;
18338;SDS011;9295;44.484;11.240;2023-07-02T00:05:27;13.53;;;7.87;;
18338;SDS011;9295;44.484;11.240;2023-07-02T00:07:57;10.23;;;7.60;;
18338;SDS011;9295;44.484;11.240;2023-07-02T00:10:25;9.70;;;7.53;;
18338;SDS011;9295;44.484;11.240;2023-07-02T00:12:54;8.57;;;7.60;;
18338;SDS011;9295;44.484;11.240;2023-07-02T00:15:23;11.53;;;7.10;;
18338;SDS011;9295;44.484;11.240;2023-07-02T00:17:51;10.57;;;7.10;;
18338;SDS011;9295;44.484;11.240;2023-07-02T00:20:24;8.77;;;6.40;;
18338;SDS011;9295;44.484;11.240;2023-07-02T00:22:53;9.10;;;6.50;;
18338;SDS011;9295;44.484;11.240;2023-07-02T00:25:24;9.13;;;6.23;;
18338;SDS011;9295;44.484;11.240;2023-07-02T00:27:52;8.40;;;6.63;;
18338;SDS011;9295;44.484;11.240;2023-07-02T00:30:21;11.07;;;7.43;;
18338;SDS011;9295;44.484;11.240;2023-07-02T00:32:50;10.20;;;6.90;;
18338;SDS011;9295;44.484;11.240;2023-07-02T00:35:19;10.17;;;7.93;;
18338;SDS011;9295;44.484;11.240;2023-07-02T00:37:48;10.83;;;7.40;;
18338;SDS011;9295;44.484;11.240;2023-07-02T00:40:17;10.03;;;7.73;;
18338;SDS011;9295;44.484;11.240;2023-07-02T00:42:47;10.27;;;7.77;;
18338;SDS011;9295;44.484;11.240;2023-07-02T00:45:16;9.47;;;7.67;;
18338;SDS011;9295;44.484;11.240;2023-07-02T00:47:45;16.70;;;8.00;;
18338;SDS011;9295;44.484;11.240;2023-07-02T00:50:15;15.07;;;8.00;;
18338;SDS011;9295;44.484;11.240;2023-07-02T00:52:43;11.30;;;8.17;;
18338;SDS011;9295;44.484;11.240;2023-07-02T00:55:12;9.20;;;7.60;;
18338;SDS011;9295;44.484;11.240;2023-07-02T00:57:43;12.67;;;7.57;;
18338;SDS011;9295;44.484;11.240;2023-07-02T01:00:15;10.97;;;7.20;;
18338;SDS011;9295;44.484;11.240;2023-07-02T01:02:52;10.43;;;7.70;;
18338;SDS011;9295;44.484;11.240;2023-07-02T01:05:24;10.50;;;7.03;;
18338;SDS011;9295;44.484;11.240;2023-07-02T01:08:03;8.87;;;7.53;;
18338;SDS011;9295;44.484;11.240;2023-07-02T01:10:32;9.67;;;8.10;;
18338;SDS011;9295;44.484;11.240;2023-07-02T01:13:04;9.37;;;7.43;;
18338;SDS011;9295;44.484;11.240;2023-07-02T01:15:37;11.30;;;7.50;;
18338;SDS011;9295;44.484;11.240;2023-07-02T01:18:06;11.00;;;8.93;;
18338;SDS011;9295;44.484;11.240;2023-07-02T01:20:37;11.37;;;8.57;;
18338;SDS011;9295;44.484;11.240;2023-07-02T01:23:06;11.90;;;8.63;;
18338;SDS011;9295;44.484;11.240;2023-07-02T01:25:36;14.07;;;8.93;;
18338;SDS011;9295;44.484;11.240;2023-07-02T01:28:05;10.70;;;8.80;;
18338;SDS011;9295;44.484;11.240;2023-07-02T01:30:33;10.27;;;7.90;;
18338;SDS011;9295;44.484;11.240;2023-07-02T01:33:05;9.37;;;7.90;;
18338;SDS011;9295;44.484;11.240;2023-07-02T01:35:34;11.83;;;8.17;;
18338;SDS011;9295;44.484;11.240;2023-07-02T01:38:04;10.03;;;7.90;;
18338;SDS011;9295;44.484;11.240;2023-07-02T01:40:32;9.40;;;7.37;;
18338;SDS011;9295;44.484;11.240;2023-07-02T01:43:01;8.70;;;7.60;;
18338;SDS011;9295;44.484;11.240;2023-07-02T01:45:30;12.40;;;8.30;;
18338;SDS011;9295;44.484;11.240;2023-07-02T01:47:58;14.93;;;8.13;;
18338;SDS011;9295;44.484;11.240;2023-07-02T01:50:27;10.40;;;7.50;;
18338;SDS011;9295;44.484;11.240;2023-07-02T01:52:56;10.47;;;8.30;;
18338;SDS011;9295;44.484;11.240;2023-07-02T01:55:27;10.57;;;7.30;;
18338;SDS011;9295;44.484;11.240;2023-07-02T01:57:55;10.47;;;7.97;;
18338;SDS011;9295;44.484;11.240;2023-07-02T02:00:24;10.40;;;6.93;;
18338;SDS011;9295;44.484;11.240;2023-07-02T02:02:52;11.40;;;7.30;;
18338;SDS011;9295;44.484;11.240;2023-07-02T02:05:21;9.77;;;7.90;;
18338;SDS011;9295;44.484;11.240;2023-07-02T02:07:49;10.40;;;7.57;;
18338;SDS011;9295;44.484;11.240;2023-07-02T02:10:18;8.80;;;7.67;;
18338;SDS011;9295;44.484;11.240;2023-07-02T02:12:48;19.83;;;8.37;;
18338;SDS011;9295;44.484;11.240;2023-07-02T02:15:17;10.57;;;8.43;;
18338;SDS011;9295;44.484;11.240;2023-07-02T02:17:46;17.20;;;8.33;;
18338;SDS011;9295;44.484;11.240;2023-07-02T02:20:14;9.50;;;7.23;;
18338;SDS011;9295;44.484;11.240;2023-07-02T02:22:43;10.37;;;8.40;;
18338;SDS011;9295;44.484;11.240;2023-07-02T02:25:12;10.33;;;7.53;;
18338;SDS011;9295;44.484;11.240;2023-07-02T02:27:40;10.60;;;7.63;;
18338;SDS011;9295;44.484;11.240;2023-07-02T02:30:11;14.93;;;7.67;;
18338;SDS011;9295;44.484;11.240;2023-07-02T02:32:40;12.20;;;8.23;;
18338;SDS011;9295;44.484;11.240;2023-07-02T02:35:11;8.87;;;7.67;;
18338;SDS011;9295;44.484;11.240;2023-07-02T02:37:39;9.80;;;7.90;;
18338;SDS011;9295;44.484;11.240;2023-07-02T02:40:08;8.67;;;7.23;;
18338;SDS011;9295;44.484;11.240;2023-07-02T02:42:39;10.67;;;7.83;;
18338;SDS011;9295;44.484;11.240;2023-07-02T02:45:08;11.70;;;7.70;;
18338;SDS011;9295;44.484;11.240;2023-07-02T02:47:38;12.80;;;7.60;;
18338;SDS011;9295;44.484;11.240;2023-07-02T02:50:07;9.97;;;7.70;;
18338;SDS011;9295;44.484;11.240;2023-07-02T02:52:37;12.50;;;7.43;;
18338;SDS011;9295;44.484;11.240;2023-07-02T02:55:06;11.00;;;8.27;;
18338;SDS011;9295;44.484;11.240;2023-07-02T02:57:35;18.90;;;8.27;;
18338;SDS011;9295;44.484;11.240;2023-07-02T03:00:04;10.93;;;8.20;;
18338;SDS011;9295;44.484;11.240;2023-07-02T03:02:34;14.40;;;10.13;;
18338;SDS011;9295;44.484;11.240;2023-07-02T03:05:05;12.87;;;8.43;;
18338;SDS011;9295;44.484;11.240;2023-07-02T03:07:34;15.53;;;9.20;;
18338;SDS011;9295;44.484;11.240;2023-07-02T03:10:03;13.10;;;8.77;;
18338;SDS011;9295;44.484;11.240;2023-07-02T03:12:32;11.20;;;8.67;;
18338;SDS011;9295;44.484;11.240;2023-07-02T03:15:01;14.03;;;9.37;;
18338;SDS011;9295;44.484;11.240;2023-07-02T03:17:30;9.70;;;8.70;;
18338;SDS011;9295;44.484;11.240;2023-07-02T03:19:58;10.00;;;7.70;;
18338;SDS011;9295;44.484;11.240;2023-07-02T03:22:28;12.47;;;8.40;;
18338;SDS011;9295;44.484;11.240;2023-07-02T03:24:57;14.27;;;8.90;;
18338;SDS011;9295;44.484;11.240;2023-07-02T03:27:26;10.67;;;8.27;;
18338;SDS011;9295;44.484;11.240;2023-07-02T03:29:54;11.27;;;8.30;;
18338;SDS011;9295;44.484;11.240;2023-07-02T03:32:23;10.83;;;8.23;;
18338;SDS011;9295;44.484;11.240;2023-07-02T03:34:51;9.63;;;8.03;;
18338;SDS011;9295;44.484;11.240;2023-07-02T03:37:20;14.07;;;8.47;;
18338;SDS011;9295;44.484;11.240;2023-07-02T03:39:50;8.97;;;8.00;;
18338;SDS011;9295;44.484;11.240;2023-07-02T03:42:18;9.07;;;7.33;;
18338;SDS011;9295;44.484;11.240;2023-07-02T03:44:47;9.50;;;7.43;;
18338;SDS011;9295;44.484;11.240;2023-07-02T03:47:15;13.17;;;8.30;;
18338;SDS011;9295;44.484;11.240;2023-07-02T03:49:47;10.80;;;8.03;;
18338;SDS011;9295;44.484;11.240;2023-07-02T03:52:15;10.83;;;9.23;;
18338;SDS011;9295;44.484;11.240;2023-07-02T03:54:44;11.50;;;7.70;;
18338;SDS011;9295;44.484;11.240;2023-07-02T03:57:14;11.10;;;8.13;;
18338;SDS011;9295;44.484;11.240;2023-07-02T03:59:42;11.20;;;9.10;;
18338;SDS011;9295;44.484;11.240;2023-07-02T04:02:11;11.77;;;8.97;;
18338;SDS011;9295;44.484;11.240;2023-07-02T04:04:40;10.43;;;8.57;;
18338;SDS011;9295;44.484;11.240;2023-07-02T04:07:08;18.10;;;8.50;;
18338;SDS011;9295;44.484;11.240;2023-07-02T04:09:37;15.97;;;8.27;;
18338;SDS011;9295;44.484;11.240;2023-07-02T04:12:06;13.90;;;8.13;;
18338;SDS011;9295;44.484;11.240;2023-07-02T04:14:38;12.27;;;7.93;;
18338;SDS011;9295;44.484;11.240;2023-07-02T04:17:07;13.37;;;7.73;;
18338;SDS011;9295;44.484;11.240;2023-07-02T04:19:36;14.73;;;8.23;;
18338;SDS011;9295;44.484;11.240;2023-07-02T04:22:05;14.70;;;8.10;;
18338;SDS011;9295;44.484;11.240;2023-07-02T04:24:34;13.50;;;8.27;;
18338;SDS011;9295;44.484;11.240;2023-07-02T04:27:03;14.90;;;8.60;;
18338;SDS011;9295;44.484;11.240;2023-07-02T04:29:54;8.80;;;7.83;;
18338;SDS011;9295;44.484;11.240;2023-07-02T04:32:23;10.07;;;7.13;;
18338;SDS011;9295;44.484;11.240;2023-07-02T04:34:52;10.03;;;7.30;;
18338;SDS011;9295;44.484;11.240;2023-07-02T04:37:20;11.00;;;7.60;;
18338;SDS011;9295;44.484;11.240;2023-07-02T04:39:49;11.27;;;7.30;;
18338;SDS011;9295;44.484;11.240;2023-07-02T04:42:18;10.93;;;8.27;;
18338;SDS011;9295;44.484;11.240;2023-07-02T04:44:47;12.40;;;7.67;;
18338;SDS011;9295;44.484;11.240;2023-07-02T04:47:17;10.80;;;7.40;;
18338;SDS011;9295;44.484;11.240;2023-07-02T04:49:45;11.47;;;7.33;;
18338;SDS011;9295;44.484;11.240;2023-07-02T04:52:14;14.30;;;7.60;;
18338;SDS011;9295;44.484;11.240;2023-07-02T04:54:42;11.83;;;7.17;;
18338;SDS011;9295;44.484;11.240;2023-07-02T04:57:11;10.50;;;6.73;;
18338;SDS011;9295;44.484;11.240;2023-07-02T04:59:41;10.80;;;6.40;;
18338;SDS011;9295;44.484;11.240;2023-07-02T05:02:10;9.80;;;6.40;;
18338;SDS011;9295;44.484;11.240;2023-07-02T05:04:40;8.90;;;6.40;;
18338;SDS011;9295;44.484;11.240;2023-07-02T05:07:09;8.93;;;6.00;;
18338;SDS011;9295;44.484;11.240;2023-07-02T05:09:37;9.60;;;5.90;;
18338;SDS011;9295;44.484;11.240;2023-07-02T05:12:06;7.27;;;5.70;;
18338;SDS011;9295;44.484;11.240;2023-07-02T05:14:35;9.00;;;6.23;;
18338;SDS011;9295;44.484;11.240;2023-07-02T05:17:04;8.43;;;5.47;;
18338;SDS011;9295;44.484;11.240;2023-07-02T05:19:33;11.53;;;6.10;;
18338;SDS011;9295;44.484;11.240;2023-07-02T05:22:03;10.20;;;5.30;;
18338;SDS011;9295;44.484;11.240;2023-07-02T05:24:31;9.40;;;5.73;;
18338;SDS011;9295;44.484;11.240;2023-07-02T05:27:00;8.43;;;5.33;;
18338;SDS011;9295;44.484;11.240;2023-07-02T05:29:29;7.77;;;5.80;;
18338;SDS011;9295;44.484;11.240;2023-07-02T05:31:58;7.37;;;5.20;;
18338;SDS011;9295;44.484;11.240;2023-07-02T05:34:26;10.60;;;5.20;;
18338;SDS011;9295;44.484;11.240;2023-07-02T05:36:55;6.77;;;4.50;;
18338;SDS011;9295;44.484;11.240;2023-07-02T05:39:25;10.40;;;5.60;;
18338;SDS011;9295;44.484;11.240;2023-07-02T05:41:53;10.63;;;5.57;;
18338;SDS011;9295;44.484;11.240;2023-07-02T05:44:22;11.17;;;5.13;;
18338;SDS011;9295;44.484;11.240;2023-07-02T05:46:50;10.10;;;5.77;;
18338;SDS011;9295;44.484;11.240;2023-07-02T05:49:19;8.30;;;5.53;;
18338;SDS011;9295;44.484;11.240;2023-07-02T05:51:48;10.37;;;6.23;;
18338;SDS011;9295;44.484;11.240;2023-07-02T05:54:17;8.50;;;5.50;;
18338;SDS011;9295;44.484;11.240;2023-07-02T05:56:46;7.60;;;5.60;;
18338;SDS011;9295;44.484;11.240;2023-07-02T05:59:15;14.23;;;5.70;;
18338;SDS011;9295;44.484;11.240;2023-07-02T06:01:45;8.83;;;5.93;;
18338;SDS011;9295;44.484;11.240;2023-07-02T06:04:14;8.70;;;5.50;;
18338;SDS011;9295;44.484;11.240;2023-07-02T06:06:43;11.67;;;5.67;;
18338;SDS011;9295;44.484;11.240;2023-07-02T06:09:11;9.80;;;6.07;;
18338;SDS011;9295;44.484;11.240;2023-07-02T06:11:40;9.70;;;6.43;;
18338;SDS011;9295;44.484;11.240;2023-07-02T06:14:10;8.63;;;5.60;;
18338;SDS011;9295;44.484;11.240;2023-07-02T06:16:39;9.20;;;5.90;;
18338;SDS011;9295;44.484;11.240;2023-07-02T06:19:09;7.83;;;5.80;;
18338;SDS011;9295;44.484;11.240;2023-07-02T06:21:40;8.50;;;6.17;;
18338;SDS011;9295;44.484;11.240;2023-07-02T06:24:08;9.53;;;6.50;;
18338;SDS011;9295;44.484;11.240;2023-07-02T06:26:37;7.47;;;5.40;;
18338;SDS011;9295;44.484;11.240;2023-07-02T06:29:06;10.57;;;6.87;;
18338;SDS011;9295;44.484;11.240;2023-07-02T06:31:36;9.17;;;5.93;;
18338;SDS011;9295;44.484;11.240;2023-07-02T06:34:04;12.53;;;7.47;;
18338;SDS011;9295;44.484;11.240;2023-07-02T06:36:35;16.57;;;11.10;;
18338;SDS011;9295;44.484;11.240;2023-07-02T06:39:03;14.10;;;7.83;;
18338;SDS011;9295;44.484;11.240;2023-07-02T06:41:32;7.70;;;5.40;;
18338;SDS011;9295;44.484;11.240;2023-07-02T06:44:01;9.90;;;5.50;;
18338;SDS011;9295;44.484;11.240;2023-07-02T06:46:32;7.20;;;5.60;;
18338;SDS011;9295;44.484;11.240;2023-07-02T06:49:02;9.40;;;5.60;;
18338;SDS011;9295;44.484;11.240;2023-07-02T06:51:30;9.20;;;6.10;;
18338;SDS011;9295;44.484;11.240;2023-07-02T06:54:00;9.13;;;6.07;;
18338;SDS011;9295;44.484;11.240;2023-07-02T06:56:28;8.23;;;5.60;;
18338;SDS011;9295;44.484;11.240;2023-07-02T06:58:59;9.20;;;5.97;;
18338;SDS011;9295;44.484;11.240;2023-07-02T07:01:27;9.00;;;5.53;;
18338;SDS011;9295;44.484;11.240;2023-07-02T07:03:56;10.90;;;5.70;;
18338;SDS011;9295;44.484;11.240;2023-07-02T07:06:27;10.67;;;5.90;;
18338;SDS011;9295;44.484;11.240;2023-07-02T07:08:55;7.90;;;5.00;;
18338;SDS011;9295;44.484;11.240;2023-07-02T07:11:24;8.10;;;5.20;;
18338;SDS011;9295;44.484;11.240;2023-07-02T07:13:52;8.90;;;5.77;;
18338;SDS011;9295;44.484;11.240;2023-07-02T07:16:21;7.90;;;4.73;;
18338;SDS011;9295;44.484;11.240;2023-07-02T07:18:50;9.07;;;5.00;;
18338;SDS011;9295;44.484;11.240;2023-07-02T07:21:18;9.07;;;5.50;;
18338;SDS011;9295;44.484;11.240;2023-07-02T07:23:48;9.73;;;5.67;;
18338;SDS011;9295;44.484;11.240;2023-07-02T07:26:17;9.70;;;5.40;;
18338;SDS011;9295;44.484;11.240;2023-07-02T07:28:45;8.60;;;5.50;;
18338;SDS011;9295;44.484;11.240;2023-07-02T07:31:14;9.37;;;5.60;;
18338;SDS011;9295;44.484;11.240;2023-07-02T07:33:43;9.00;;;5.40;;
18338;SDS011;9295;44.484;11.240;2023-07-02T07:36:11;8.70;;;5.30;;
18338;SDS011;9295;44.484;11.240;2023-07-02T07:38:42;8.73;;;5.33;;
18338;SDS011;9295;44.484;11.240;2023-07-02T07:41:12;6.23;;;4.83;;
18338;SDS011;9295;44.484;11.240;2023-07-02T07:43:41;8.50;;;5.33;;
18338;SDS011;9295;44.484;11.240;2023-07-02T07:46:09;8.00;;;4.83;;
18338;SDS011;9295;44.484;11.240;2023-07-02T07:48:38;11.90;;;5.50;;
18338;SDS011;9295;44.484;11.240;2023-07-02T07:51:07;9.23;;;5.97;;
18338;SDS011;9295;44.484;11.240;2023-07-02T07:53:37;9.83;;;5.63;;
18338;SDS011;9295;44.484;11.240;2023-07-02T07:56:06;8.00;;;4.83;;
18338;SDS011;9295;44.484;11.240;2023-07-02T07:58:36;8.27;;;5.47;;
18338;SDS011;9295;44.484;11.240;2023-07-02T08:01:04;7.80;;;5.17;;
18338;SDS011;9295;44.484;11.240;2023-07-02T08:03:33;7.70;;;4.93;;
18338;SDS011;9295;44.484;11.240;2023-07-02T08:06:05;7.30;;;5.13;;
18338;SDS011;9295;44.484;11.240;2023-07-02T08:08:35;6.90;;;5.20;;
18338;SDS011;9295;44.484;11.240;2023-07-02T08:11:04;7.80;;;5.20;;
18338;SDS011;9295;44.484;11.240;2023-07-02T08:13:32;7.97;;;4.83;;
18338;SDS011;9295;44.484;11.240;2023-07-02T08:16:02;6.00;;;4.60;;
18338;SDS011;9295;44.484;11.240;2023-07-02T08:18:31;8.70;;;5.37;;
18338;SDS011;9295;44.484;11.240;2023-07-02T08:21:00;7.23;;;5.00;;
18338;SDS011;9295;44.484;11.240;2023-07-02T08:23:29;7.70;;;5.20;;
18338;SDS011;9295;44.484;11.240;2023-07-02T08:25:57;13.93;;;5.53;;
18338;SDS011;9295;44.484;11.240;2023-07-02T08:28:26;6.00;;;4.70;;
18338;SDS011;9295;44.484;11.240;2023-07-02T08:30:54;7.43;;;4.37;;
18338;SDS011;9295;44.484;11.240;2023-07-02T08:33:25;6.67;;;4.40;;
18338;SDS011;9295;44.484;11.240;2023-07-02T08:35:53;6.47;;;4.37;;
18338;SDS011;9295;44.484;11.240;2023-07-02T08:38:22;6.47;;;4.20;;
18338;SDS011;9295;44.484;11.240;2023-07-02T08:40:51;6.50;;;4.40;;
18338;SDS011;9295;44.484;11.240;2023-07-02T08:43:21;7.00;;;5.20;;
18338;SDS011;9295;44.484;11.240;2023-07-02T08:45:51;7.27;;;4.70;;
18338;SDS011;9295;44.484;11.240;2023-07-02T08:48:21;8.10;;;4.10;;
18338;SDS011;9295;44.484;11.240;2023-07-02T08:50:52;7.90;;;4.80;;
18338;SDS011;9295;44.484;11.240;2023-07-02T08:53:21;9.30;;;4.27;;
18338;SDS011;9295;44.484;11.240;2023-07-02T08:55:52;8.23;;;4.60;;
18338;SDS011;9295;44.484;11.240;2023-07-02T08:58:21;5.97;;;4.63;;
18338;SDS011;9295;44.484;11.240;2023-07-02T09:01:06;7.03;;;4.70;;
18338;SDS011;9295;44.484;11.240;2023-07-02T09:03:35;8.17;;;4.73;;
18338;SDS011;9295;44.484;11.240;2023-07-02T09:06:06;6.13;;;3.53;;
18338;SDS011;9295;44.484;11.240;2023-07-02T09:08:37;9.50;;;3.97;;
18338;SDS011;9295;44.484;11.240;2023-07-02T09:11:09;6.33;;;4.30;;
18338;SDS011;9295;44.484;11.240;2023-07-02T09:13:42;6.47;;;4.30;;
18338;SDS011;9295;44.484;11.240;2023-07-02T09:16:24;7.97;;;4.10;;
18338;SDS011;9295;44.484;11.240;2023-07-02T09:18:59;7.47;;;4.63;;
18338;SDS011;9295;44.484;11.240;2023-07-02T09:21:38;6.10;;;4.60;;
18338;SDS011;9295;44.484;11.240;2023-07-02T09:24:15;9.50;;;4.27;;
18338;SDS011;9295;44.484;11.240;2023-07-02T09:26:45;6.07;;;4.40;;
18338;SDS011;9295;44.484;11.240;2023-07-02T09:29:17;6.80;;;4.07;;
18338;SDS011;9295;44.484;11.240;2023-07-02T09:31:46;6.03;;;4.30;;
18338;SDS011;9295;44.484;11.240;2023-07-02T09:34:35;6.37;;;4.50;;
18338;SDS011;9295;44.484;11.240;2023-07-02T09:37:06;5.83;;;4.13;;
18338;SDS011;9295;44.484;11.240;2023-07-02T09:39:35;6.43;;;4.10;;
18338;SDS011;9295;44.484;11.240;2023-07-02T09:42:06;6.70;;;4.37;;
18338;SDS011;9295;44.484;11.240;2023-07-02T09:44:36;6.73;;;4.50;;
18338;SDS011;9295;44.484;11.240;2023-07-02T09:47:08;7.90;;;5.43;;
18338;SDS011;9295;44.484;11.240;2023-07-02T09:49:38;7.70;;;4.53;;
18338;SDS011;9295;44.484;11.240;2023-07-02T09:52:10;5.90;;;4.20;;
18338;SDS011;9295;44.484;11.240;2023-07-02T09:54:41;9.93;;;4.80;;
18338;SDS011;9295;44.484;11.240;2023-07-02T09:57:09;5.80;;;4.10;;
18338;SDS011;9295;44.484;11.240;2023-07-02T09:59:39;8.83;;;5.10;;
18338;SDS011;9295;44.484;11.240;2023-07-02T10:02:08;7.37;;;4.60;;
18338;SDS011;9295;44.484;11.240;2023-07-02T10:04:41;7.13;;;4.80;;
18338;SDS011;9295;44.484;11.240;2023-07-02T10:07:12;7.70;;;4.80;;
18338;SDS011;9295;44.484;11.240;2023-07-02T10:09:53;9.67;;;4.70;;
18338;SDS011;9295;44.484;11.240;2023-07-02T10:12:22;6.67;;;4.87;;
18338;SDS011;9295;44.484;11.240;2023-07-02T10:14:52;7.90;;;5.30;;
18338;SDS011;9295;44.484;11.240;2023-07-02T10:17:24;11.80;;;4.80;;
18338;SDS011;9295;44.484;11.240;2023-07-02T10:19:58;6.67;;;5.00;;
18338;SDS011;9295;44.484;11.240;2023-07-02T10:22:29;9.83;;;5.40;;
18338;SDS011;9295;44.484;11.240;2023-07-02T10:25:09;6.00;;;4.33;;
18338;SDS011;9295;44.484;11.240;2023-07-02T10:27:39;5.00;;;4.20;;
18338;SDS011;9295;44.484;11.240;2023-07-02T10:30:10;6.20;;;4.23;;
18338;SDS011;9295;44.484;11.240;2023-07-02T10:32:39;5.90;;;4.43;;
18338;SDS011;9295;44.484;11.240;2023-07-02T10:35:14;7.63;;;4.67;;
18338;SDS011;9295;44.484;11.240;2023-07-02T10:37:44;7.07;;;4.80;;
18338;SDS011;9295;44.484;11.240;2023-07-02T10:40:13;6.23;;;4.70;;
18338;SDS011;9295;44.484;11.240;2023-07-02T10:42:45;7.97;;;5.37;;
18338;SDS011;9295;44.484;11.240;2023-07-02T10:45:14;9.40;;;4.93;;
18338;SDS011;9295;44.484;11.240;2023-07-02T10:47:43;8.17;;;5.20;;
18338;SDS011;9295;44.484;11.240;2023-07-02T10:50:13;6.93;;;4.50;;
18338;SDS011;9295;44.484;11.240;2023-07-02T10:52:47;9.13;;;4.70;;
18338;SDS011;9295;44.484;11.240;2023-07-02T10:55:17;7.27;;;4.40;;
18338;SDS011;9295;44.484;11.240;2023-07-02T10:57:47;6.67;;;4.27;;
18338;SDS011;9295;44.484;11.240;2023-07-02T11:00:18;9.83;;;5.10;;
18338;SDS011;9295;44.484;11.240;2023-07-02T11:02:47;7.00;;;4.73;;
18338;SDS011;9295;44.484;11.240;2023-07-02T11:05:16;5.70;;;4.30;;
18338;SDS011;9295;44.484;11.240;2023-07-02T11:07:45;7.40;;;5.30;;
18338;SDS011;9295;44.484;11.240;2023-07-02T11:10:18;7.47;;;4.40;;
18338;SDS011;9295;44.484;11.240;2023-07-02T11:12:47;6.93;;;4.47;;
18338;SDS011;9295;44.484;11.240;2023-07-02T11:15:16;9.87;;;4.97;;
18338;SDS011;9295;44.484;11.240;2023-07-02T11:17:45;11.13;;;5.13;;
18338;SDS011;9295;44.484;11.240;2023-07-02T11:20:14;6.50;;;4.60;;
18338;SDS011;9295;44.484;11.240;2023-07-02T11:22:43;6.30;;;4.50;;
18338;SDS011;9295;44.484;11.240;2023-07-02T11:25:13;6.40;;;4.50;;
18338;SDS011;9295;44.484;11.240;2023-07-02T11:27:45;8.07;;;4.83;;
18338;SDS011;9295;44.484;11.240;2023-07-02T11:30:13;6.83;;;4.27;;
18338;SDS011;9295;44.484;11.240;2023-07-02T11:32:49;7.27;;;4.67;;
18338;SDS011;9295;44.484;11.240;2023-07-02T11:35:19;8.03;;;4.23;;
18338;SDS011;9295;44.484;11.240;2023-07-02T11:37:48;9.60;;;4.77;;
18338;SDS011;9295;44.484;11.240;2023-07-02T11:40:17;5.70;;;4.10;;
18338;SDS011;9295;44.484;11.240;2023-07-02T11:42:48;5.93;;;3.80;;
18338;SDS011;9295;44.484;11.240;2023-07-02T11:45:16;6.67;;;4.03;;
18338;SDS011;9295;44.484;11.240;2023-07-02T11:47:45;6.53;;;4.93;;
18338;SDS011;9295;44.484;11.240;2023-07-02T11:50:14;6.40;;;4.10;;
18338;SDS011;9295;44.484;11.240;2023-07-02T11:52:52;5.87;;;4.00;;
18338;SDS011;9295;44.484;11.240;2023-07-02T11:55:21;6.80;;;4.80;;
18338;SDS011;9295;44.484;11.240;2023-07-02T11:57:51;6.23;;;4.40;;
18338;SDS011;9295;44.484;11.240;2023-07-02T12:00:20;8.17;;;4.90;;
18338;SDS011;9295;44.484;11.240;2023-07-02T12:02:49;7.90;;;4.43;;
18338;SDS011;9295;44.484;11.240;2023-07-02T12:05:18;8.73;;;5.20;;
18338;SDS011;9295;44.484;11.240;2023-07-02T12:07:47;7.00;;;4.73;;
18338;SDS011;9295;44.484;11.240;2023-07-02T12:10:15;7.53;;;5.07;;
18338;SDS011;9295;44.484;11.240;2023-07-02T12:12:44;6.10;;;4.70;;
18338;SDS011;9295;44.484;11.240;2023-07-02T12:15:14;6.47;;;5.00;;
18338;SDS011;9295;44.484;11.240;2023-07-02T12:17:43;8.70;;;5.40;;
18338;SDS011;9295;44.484;11.240;2023-07-02T12:20:11;6.43;;;4.60;;
18338;SDS011;9295;44.484;11.240;2023-07-02T12:22:40;8.27;;;4.30;;
18338;SDS011;9295;44.484;11.240;2023-07-02T12:25:11;6.87;;;4.77;;
18338;SDS011;9295;44.484;11.240;2023-07-02T12:27:39;6.63;;;4.47;;
18338;SDS011;9295;44.484;11.240;2023-07-02T12:30:08;9.00;;;4.87;;
18338;SDS011;9295;44.484;11.240;2023-07-02T12:32:39;6.77;;;4.80;;
18338;SDS011;9295;44.484;11.240;2023-07-02T12:35:08;7.10;;;4.70;;
18338;SDS011;9295;44.484;11.240;2023-07-02T12:37:42;5.87;;;4.50;;
18338;SDS011;9295;44.484;11.240;2023-07-02T12:40:11;6.83;;;4.27;;
18338;SDS011;9295;44.484;11.240;2023-07-02T12:42:40;5.37;;;4.20;;
18338;SDS011;9295;44.484;11.240;2023-07-02T12:45:10;7.53;;;4.30;;
18338;SDS011;9295;44.484;11.240;2023-07-02T12:47:41;7.87;;;5.00;;
18338;SDS011;9295;44.484;11.240;2023-07-02T12:50:10;7.30;;;4.80;;
18338;SDS011;9295;44.484;11.240;2023-07-02T12:52:39;6.77;;;4.80;;
18338;SDS011;9295;44.484;11.240;2023-07-02T12:55:08;6.50;;;4.00;;
18338;SDS011;9295;44.484;11.240;2023-07-02T12:57:37;7.43;;;4.30;;
18338;SDS011;9295;44.484;11.240;2023-07-02T13:00:06;5.03;;;3.80;;
18338;SDS011;9295;44.484;11.240;2023-07-02T13:02:36;10.50;;;4.90;;
18338;SDS011;9295;44.484;11.240;2023-07-02T13:05:25;5.77;;;3.80;;
18338;SDS011;9295;44.484;11.240;2023-07-02T13:07:54;6.67;;;4.40;;
18338;SDS011;9295;44.484;11.240;2023-07-02T13:10:22;6.10;;;4.03;;
18338;SDS011;9295;44.484;11.240;2023-07-02T13:12:51;7.70;;;4.23;;
18338;SDS011;9295;44.484;11.240;2023-07-02T13:15:19;8.10;;;4.40;;
18338;SDS011;9295;44.484;11.240;2023-07-02T13:17:49;8.40;;;4.67;;
18338;SDS011;9295;44.484;11.240;2023-07-02T13:20:18;7.20;;;4.63;;
18338;SDS011;9295;44.484;11.240;2023-07-02T13:22:48;8.13;;;5.20;;
18338;SDS011;9295;44.484;11.240;2023-07-02T13:25:17;6.73;;;4.50;;
18338;SDS011;9295;44.484;11.240;2023-07-02T13:27:46;6.63;;;4.47;;
18338;SDS011;9295;44.484;11.240;2023-07-02T13:30:14;6.20;;;4.60;;
18338;SDS011;9295;44.484;11.240;2023-07-02T13:32:43;6.90;;;5.00;;
18338;SDS011;9295;44.484;11.240;2023-07-02T13:35:12;8.63;;;4.50;;
18338;SDS011;9295;44.484;11.240;2023-07-02T13:37:40;5.57;;;4.30;;
18338;SDS011;9295;44.484;11.240;2023-07-02T13:40:11;7.37;;;4.57;;
18338;SDS011;9295;44.484;11.240;2023-07-02T13:42:42;7.77;;;4.50;;
18338;SDS011;9295;44.484;11.240;2023-07-02T13:45:11;10.63;;;4.50;;
18338;SDS011;9295;44.484;11.240;2023-07-02T13:47:40;6.30;;;4.30;;
18338;SDS011;9295;44.484;11.240;2023-07-02T13:50:09;6.87;;;3.90;;
18338;SDS011;9295;44.484;11.240;2023-07-02T13:52:38;6.87;;;4.47;;
18338;SDS011;9295;44.484;11.240;2023-07-02T13:55:07;6.67;;;4.33;;
18338;SDS011;9295;44.484;11.240;2023-07-02T13:57:38;5.80;;;4.20;;
18338;SDS011;9295;44.484;11.240;2023-07-02T14:00:08;7.77;;;4.40;;
18338;SDS011;9295;44.484;11.240;2023-07-02T14:02:38;6.53;;;4.00;;
18338;SDS011;9295;44.484;11.240;2023-07-02T14:05:07;7.07;;;4.70;;
18338;SDS011;9295;44.484;11.240;2023-07-02T14:07:36;5.60;;;4.07;;
18338;SDS011;9295;44.484;11.240;2023-07-02T14:10:05;7.80;;;4.37;;
18338;SDS011;9295;44.484;11.240;2023-07-02T14:12:34;7.67;;;4.33;;
18338;SDS011;9295;44.484;11.240;2023-07-02T14:15:03;6.67;;;4.80;;
18338;SDS011;9295;44.484;11.240;2023-07-02T14:17:33;5.70;;;4.50;;
18338;SDS011;9295;44.484;11.240;2023-07-02T14:20:03;6.57;;;4.20;;
18338;SDS011;9295;44.484;11.240;2023-07-02T14:22:32;5.13;;;4.00;;
18338;SDS011;9295;44.484;11.240;2023-07-02T14:25:01;6.97;;;4.17;;
18338;SDS011;9295;44.484;11.240;2023-07-02T14:27:30;7.17;;;4.50;;
18338;SDS011;9295;44.484;11.240;2023-07-02T14:29:58;5.67;;;4.00;;
18338;SDS011;9295;44.484;11.240;2023-07-02T14:32:29;5.53;;;3.33;;
18338;SDS011;9295;44.484;11.240;2023-07-02T14:34:59;6.77;;;4.00;;
18338;SDS011;9295;44.484;11.240;2023-07-02T14:37:27;5.90;;;3.97;;
18338;SDS011;9295;44.484;11.240;2023-07-02T14:39:57;5.70;;;4.10;;
18338;SDS011;9295;44.484;11.240;2023-07-02T14:42:32;6.23;;;4.60;;
18338;SDS011;9295;44.484;11.240;2023-07-02T14:45:01;6.20;;;4.00;;
18338;SDS011;9295;44.484;11.240;2023-07-02T14:47:31;4.93;;;3.67;;
18338;SDS011;9295;44.484;11.240;2023-07-02T14:50:01;4.90;;;3.67;;
18338;SDS011;9295;44.484;11.240;2023-07-02T14:52:30;5.40;;;3.70;;
18338;SDS011;9295;44.484;11.240;2023-07-02T14:54:59;5.83;;;4.10;;
18338;SDS011;9295;44.484;11.240;2023-07-02T14:57:29;4.77;;;3.50;;